sensor_id;sensor_type;location;lat;lon;timestamp;temperature;humidity
780;DHT22;373;49.342;8.146;2022-07-12T00:01:48;20.20;96.30
780;DHT22;373;49.342;8.146;2022-07-12T00:04:15;20.10;96.50
780;DHT22;373;49.342;8.146;2022-07-12T00:06:42;20.40;95.80
780;DHT22;373;49.342;8.146;2022-07-12T00:09:10;20.50;95.80
780;DHT22;373;49.342;8.146;2022-07-12T00:11:37;20.50;95.60
780;DHT22;373;49.342;8.146;2022-07-12T00:14:04;20.50;95.50
780;DHT22;373;49.342;8.146;2022-07-12T00:16:33;20.60;95.20
780;DHT22;373;49.342;8.146;2022-07-12T00:19:00;20.70;95.10
780;DHT22;373;49.342;8.146;2022-07-12T00:21:27;20.70;94.90
780;DHT22;373;49.342;8.146;2022-07-12T00:23:54;20.70;94.90
780;DHT22;373;49.342;8.146;2022-07-12T00:26:21;20.40;95.70
780;DHT22;373;49.342;8.146;2022-07-12T00:28:49;20.30;96.10
780;DHT22;373;49.342;8.146;2022-07-12T00:31:16;20.20;96.20
780;DHT22;373;49.342;8.146;2022-07-12T00:33:44;20.10;96.70
780;DHT22;373;49.342;8.146;2022-07-12T00:36:12;19.80;97.50
780;DHT22;373;49.342;8.146;2022-07-12T00:38:39;19.90;97.50
780;DHT22;373;49.342;8.146;2022-07-12T00:41:06;19.90;97.40
780;DHT22;373;49.342;8.146;2022-07-12T00:43:33;20.00;96.90
780;DHT22;373;49.342;8.146;2022-07-12T00:46:00;20.00;97.00
780;DHT22;373;49.342;8.146;2022-07-12T00:48:27;20.10;96.60
780;DHT22;373;49.342;8.146;2022-07-12T00:50:56;20.20;96.70
780;DHT22;373;49.342;8.146;2022-07-12T00:53:23;20.20;96.70
780;DHT22;373;49.342;8.146;2022-07-12T00:55:53;20.30;96.40
780;DHT22;373;49.342;8.146;2022-07-12T00:58:21;20.40;96.20
780;DHT22;373;49.342;8.146;2022-07-12T01:00:49;20.50;95.90
780;DHT22;373;49.342;8.146;2022-07-12T01:03:17;20.30;95.80
780;DHT22;373;49.342;8.146;2022-07-12T01:05:45;20.20;96.40
780;DHT22;373;49.342;8.146;2022-07-12T01:08:15;20.10;96.60
780;DHT22;373;49.342;8.146;2022-07-12T01:10:43;20.00;96.90
780;DHT22;373;49.342;8.146;2022-07-12T01:13:11;20.00;96.80
780;DHT22;373;49.342;8.146;2022-07-12T01:15:38;19.90;97.40
780;DHT22;373;49.342;8.146;2022-07-12T01:18:07;19.80;97.50
780;DHT22;373;49.342;8.146;2022-07-12T01:20:35;20.00;97.20
780;DHT22;373;49.342;8.146;2022-07-12T01:23:03;20.10;97.00
780;DHT22;373;49.342;8.146;2022-07-12T01:25:31;20.00;96.70
780;DHT22;373;49.342;8.146;2022-07-12T01:27:58;19.90;97.30
780;DHT22;373;49.342;8.146;2022-07-12T01:30:25;19.90;97.50
780;DHT22;373;49.342;8.146;2022-07-12T01:32:52;19.90;97.20
780;DHT22;373;49.342;8.146;2022-07-12T01:35:21;19.90;97.10
780;DHT22;373;49.342;8.146;2022-07-12T01:37:49;19.50;98.50
780;DHT22;373;49.342;8.146;2022-07-12T01:40:17;19.20;99.20
780;DHT22;373;49.342;8.146;2022-07-12T01:42:46;19.50;99.10
780;DHT22;373;49.342;8.146;2022-07-12T01:45:15;19.70;98.10
780;DHT22;373;49.342;8.146;2022-07-12T01:47:42;19.70;97.80
780;DHT22;373;49.342;8.146;2022-07-12T01:50:11;19.80;97.60
780;DHT22;373;49.342;8.146;2022-07-12T01:52:39;19.70;97.80
780;DHT22;373;49.342;8.146;2022-07-12T01:55:08;19.40;98.90
780;DHT22;373;49.342;8.146;2022-07-12T01:57:37;19.30;99.00
780;DHT22;373;49.342;8.146;2022-07-12T02:00:06;19.10;99.80
780;DHT22;373;49.342;8.146;2022-07-12T02:02:34;19.00;99.90
780;DHT22;373;49.342;8.146;2022-07-12T02:05:02;18.90;99.90
780;DHT22;373;49.342;8.146;2022-07-12T02:07:30;18.60;99.90
780;DHT22;373;49.342;8.146;2022-07-12T02:09:57;18.60;99.90
780;DHT22;373;49.342;8.146;2022-07-12T02:12:24;18.50;99.90
780;DHT22;373;49.342;8.146;2022-07-12T02:14:53;18.40;99.90
780;DHT22;373;49.342;8.146;2022-07-12T02:17:20;18.50;99.90
780;DHT22;373;49.342;8.146;2022-07-12T02:19:47;18.30;99.90
780;DHT22;373;49.342;8.146;2022-07-12T02:22:14;18.10;99.90
780;DHT22;373;49.342;8.146;2022-07-12T02:24:41;17.80;99.90
780;DHT22;373;49.342;8.146;2022-07-12T02:27:08;18.00;99.90
780;DHT22;373;49.342;8.146;2022-07-12T02:29:36;18.00;99.90
780;DHT22;373;49.342;8.146;2022-07-12T02:32:04;17.80;99.90
780;DHT22;373;49.342;8.146;2022-07-12T02:34:31;17.80;99.90
780;DHT22;373;49.342;8.146;2022-07-12T02:36:58;17.80;99.90
780;DHT22;373;49.342;8.146;2022-07-12T02:39:25;17.80;99.90
780;DHT22;373;49.342;8.146;2022-07-12T02:41:53;17.70;99.90
780;DHT22;373;49.342;8.146;2022-07-12T02:44:20;17.60;99.90
780;DHT22;373;49.342;8.146;2022-07-12T02:46:47;17.50;99.90
780;DHT22;373;49.342;8.146;2022-07-12T02:49:15;17.50;99.90
780;DHT22;373;49.342;8.146;2022-07-12T02:51:42;17.30;99.90
780;DHT22;373;49.342;8.146;2022-07-12T02:54:09;17.30;99.90
780;DHT22;373;49.342;8.146;2022-07-12T02:56:36;17.30;99.90
780;DHT22;373;49.342;8.146;2022-07-12T02:59:03;17.40;99.90
780;DHT22;373;49.342;8.146;2022-07-12T03:01:31;17.40;99.90
780;DHT22;373;49.342;8.146;2022-07-12T03:03:58;17.50;99.90
780;DHT22;373;49.342;8.146;2022-07-12T03:06:26;17.40;99.90
780;DHT22;373;49.342;8.146;2022-07-12T03:08:53;17.30;99.90
780;DHT22;373;49.342;8.146;2022-07-12T03:11:20;17.40;99.90
780;DHT22;373;49.342;8.146;2022-07-12T03:13:47;17.30;99.90
780;DHT22;373;49.342;8.146;2022-07-12T03:16:14;17.50;99.90
780;DHT22;373;49.342;8.146;2022-07-12T03:18:42;17.50;99.90
780;DHT22;373;49.342;8.146;2022-07-12T03:21:09;17.30;99.90
780;DHT22;373;49.342;8.146;2022-07-12T03:23:38;17.30;99.90
780;DHT22;373;49.342;8.146;2022-07-12T03:26:07;17.30;99.90
780;DHT22;373;49.342;8.146;2022-07-12T03:28:34;17.50;99.90
780;DHT22;373;49.342;8.146;2022-07-12T03:31:01;17.70;99.90
780;DHT22;373;49.342;8.146;2022-07-12T03:33:28;17.60;99.90
780;DHT22;373;49.342;8.146;2022-07-12T03:35:55;17.40;99.90
780;DHT22;373;49.342;8.146;2022-07-12T03:38:22;17.50;99.90
780;DHT22;373;49.342;8.146;2022-07-12T03:40:50;17.40;99.90
780;DHT22;373;49.342;8.146;2022-07-12T03:43:17;17.40;99.90
780;DHT22;373;49.342;8.146;2022-07-12T03:45:44;17.40;99.90
780;DHT22;373;49.342;8.146;2022-07-12T03:48:12;17.10;99.90
780;DHT22;373;49.342;8.146;2022-07-12T03:50:39;17.20;99.90
780;DHT22;373;49.342;8.146;2022-07-12T03:53:06;17.00;99.90
780;DHT22;373;49.342;8.146;2022-07-12T04:28:16;17.70;99.90
780;DHT22;373;49.342;8.146;2022-07-12T04:30:43;17.90;99.90
780;DHT22;373;49.342;8.146;2022-07-12T04:33:12;18.10;99.90
780;DHT22;373;49.342;8.146;2022-07-12T04:35:40;18.10;99.90
780;DHT22;373;49.342;8.146;2022-07-12T04:38:08;18.40;99.90
780;DHT22;373;49.342;8.146;2022-07-12T04:40:35;18.60;99.90
780;DHT22;373;49.342;8.146;2022-07-12T04:43:02;18.80;99.90
780;DHT22;373;49.342;8.146;2022-07-12T04:45:30;19.30;99.40
780;DHT22;373;49.342;8.146;2022-07-12T04:47:57;19.80;98.00
780;DHT22;373;49.342;8.146;2022-07-12T04:50:25;19.90;98.10
780;DHT22;373;49.342;8.146;2022-07-12T04:52:52;20.10;97.20
780;DHT22;373;49.342;8.146;2022-07-12T04:55:19;20.50;96.10
780;DHT22;373;49.342;8.146;2022-07-12T04:57:46;20.80;95.50
780;DHT22;373;49.342;8.146;2022-07-12T05:00:14;20.90;95.10
780;DHT22;373;49.342;8.146;2022-07-12T05:02:43;20.90;95.10
780;DHT22;373;49.342;8.146;2022-07-12T05:05:10;20.80;95.50
780;DHT22;373;49.342;8.146;2022-07-12T05:07:37;21.00;95.00
780;DHT22;373;49.342;8.146;2022-07-12T05:10:04;20.90;95.10
780;DHT22;373;49.342;8.146;2022-07-12T05:12:32;21.10;94.80
780;DHT22;373;49.342;8.146;2022-07-12T05:14:59;21.20;94.60
780;DHT22;373;49.342;8.146;2022-07-12T05:17:26;21.40;94.30
780;DHT22;373;49.342;8.146;2022-07-12T05:19:54;21.90;93.50
780;DHT22;373;49.342;8.146;2022-07-12T05:22:21;22.30;92.70
780;DHT22;373;49.342;8.146;2022-07-12T05:24:48;22.60;92.40
780;DHT22;373;49.342;8.146;2022-07-12T05:27:16;22.90;92.00
780;DHT22;373;49.342;8.146;2022-07-12T05:29:43;22.80;92.20
780;DHT22;373;49.342;8.146;2022-07-12T05:32:10;22.80;92.00
780;DHT22;373;49.342;8.146;2022-07-12T05:34:37;23.00;92.30
780;DHT22;373;49.342;8.146;2022-07-12T05:37:06;23.00;92.20
780;DHT22;373;49.342;8.146;2022-07-12T05:39:33;22.90;92.30
780;DHT22;373;49.342;8.146;2022-07-12T05:42:01;23.30;92.00
780;DHT22;373;49.342;8.146;2022-07-12T05:44:28;23.30;91.00
780;DHT22;373;49.342;8.146;2022-07-12T05:46:55;23.30;91.50
780;DHT22;373;49.342;8.146;2022-07-12T05:49:22;23.70;91.30
780;DHT22;373;49.342;8.146;2022-07-12T05:51:49;24.00;90.70
780;DHT22;373;49.342;8.146;2022-07-12T05:54:35;24.00;90.50
780;DHT22;373;49.342;8.146;2022-07-12T05:57:02;24.00;90.30
780;DHT22;373;49.342;8.146;2022-07-12T05:59:29;24.00;90.10
780;DHT22;373;49.342;8.146;2022-07-12T06:01:57;23.90;90.30
780;DHT22;373;49.342;8.146;2022-07-12T06:04:24;23.60;91.00
780;DHT22;373;49.342;8.146;2022-07-12T06:06:51;23.80;90.40
780;DHT22;373;49.342;8.146;2022-07-12T06:09:18;23.50;90.50
780;DHT22;373;49.342;8.146;2022-07-12T06:11:46;23.70;90.90
780;DHT22;373;49.342;8.146;2022-07-12T06:14:13;24.00;90.30
780;DHT22;373;49.342;8.146;2022-07-12T06:16:41;24.40;90.20
780;DHT22;373;49.342;8.146;2022-07-12T06:19:08;24.20;89.70
780;DHT22;373;49.342;8.146;2022-07-12T06:21:35;24.40;89.60
780;DHT22;373;49.342;8.146;2022-07-12T06:24:02;24.40;90.30
780;DHT22;373;49.342;8.146;2022-07-12T06:26:29;24.50;90.00
780;DHT22;373;49.342;8.146;2022-07-12T06:28:58;24.50;90.10
780;DHT22;373;49.342;8.146;2022-07-12T06:31:25;24.50;90.00
780;DHT22;373;49.342;8.146;2022-07-12T06:33:52;24.50;89.70
780;DHT22;373;49.342;8.146;2022-07-12T06:36:19;24.50;89.70
780;DHT22;373;49.342;8.146;2022-07-12T06:38:46;24.50;90.00
780;DHT22;373;49.342;8.146;2022-07-12T06:41:13;24.50;89.20
780;DHT22;373;49.342;8.146;2022-07-12T06:43:40;24.70;88.80
780;DHT22;373;49.342;8.146;2022-07-12T06:46:09;24.60;89.50
780;DHT22;373;49.342;8.146;2022-07-12T06:48:36;25.00;88.80
780;DHT22;373;49.342;8.146;2022-07-12T06:51:03;24.90;87.40
780;DHT22;373;49.342;8.146;2022-07-12T06:53:31;24.70;88.20
780;DHT22;373;49.342;8.146;2022-07-12T06:55:58;25.00;88.50
780;DHT22;373;49.342;8.146;2022-07-12T06:58:25;25.30;88.60
780;DHT22;373;49.342;8.146;2022-07-12T07:00:52;25.20;87.20
780;DHT22;373;49.342;8.146;2022-07-12T07:03:21;25.20;88.10
780;DHT22;373;49.342;8.146;2022-07-12T07:05:48;25.40;87.10
780;DHT22;373;49.342;8.146;2022-07-12T07:08:15;25.40;86.80
780;DHT22;373;49.342;8.146;2022-07-12T07:10:42;25.00;87.60
780;DHT22;373;49.342;8.146;2022-07-12T07:13:09;24.90;88.20
780;DHT22;373;49.342;8.146;2022-07-12T07:15:39;24.70;87.70
780;DHT22;373;49.342;8.146;2022-07-12T07:18:07;25.00;87.40
780;DHT22;373;49.342;8.146;2022-07-12T07:20:35;25.00;88.90
780;DHT22;373;49.342;8.146;2022-07-12T07:23:04;25.10;87.80
780;DHT22;373;49.342;8.146;2022-07-12T07:25:31;25.60;86.70
780;DHT22;373;49.342;8.146;2022-07-12T07:27:58;25.50;86.70
780;DHT22;373;49.342;8.146;2022-07-12T07:30:25;25.90;85.30
780;DHT22;373;49.342;8.146;2022-07-12T07:33:09;26.00;84.20
780;DHT22;373;49.342;8.146;2022-07-12T07:35:38;25.20;85.50
780;DHT22;373;49.342;8.146;2022-07-12T07:38:05;24.70;88.40
780;DHT22;373;49.342;8.146;2022-07-12T07:40:33;25.10;87.20
780;DHT22;373;49.342;8.146;2022-07-12T07:43:00;25.40;88.10
780;DHT22;373;49.342;8.146;2022-07-12T07:45:27;25.90;85.70
780;DHT22;373;49.342;8.146;2022-07-12T07:47:54;25.00;84.90
780;DHT22;373;49.342;8.146;2022-07-12T07:50:21;24.90;86.30
780;DHT22;373;49.342;8.146;2022-07-12T07:52:50;25.30;86.30
780;DHT22;373;49.342;8.146;2022-07-12T07:55:17;25.70;85.30
780;DHT22;373;49.342;8.146;2022-07-12T07:57:44;25.10;84.70
780;DHT22;373;49.342;8.146;2022-07-12T08:00:13;24.90;86.70
780;DHT22;373;49.342;8.146;2022-07-12T08:02:40;25.50;87.90
780;DHT22;373;49.342;8.146;2022-07-12T08:05:08;26.00;84.20
780;DHT22;373;49.342;8.146;2022-07-12T08:07:35;25.30;85.20
780;DHT22;373;49.342;8.146;2022-07-12T08:10:04;25.70;83.40
780;DHT22;373;49.342;8.146;2022-07-12T08:12:31;25.30;84.70
780;DHT22;373;49.342;8.146;2022-07-12T08:14:58;25.50;83.70
780;DHT22;373;49.342;8.146;2022-07-12T08:17:26;26.30;82.00
780;DHT22;373;49.342;8.146;2022-07-12T08:19:53;26.30;81.50
780;DHT22;373;49.342;8.146;2022-07-12T08:22:20;26.20;81.60
780;DHT22;373;49.342;8.146;2022-07-12T08:24:47;26.40;81.30
780;DHT22;373;49.342;8.146;2022-07-12T08:27:17;26.40;81.60
780;DHT22;373;49.342;8.146;2022-07-12T08:29:44;26.20;79.50
780;DHT22;373;49.342;8.146;2022-07-12T08:32:11;26.10;80.10
780;DHT22;373;49.342;8.146;2022-07-12T08:34:38;25.70;81.80
780;DHT22;373;49.342;8.146;2022-07-12T08:37:05;26.00;80.30
780;DHT22;373;49.342;8.146;2022-07-12T08:39:32;26.30;81.70
780;DHT22;373;49.342;8.146;2022-07-12T08:42:00;26.70;78.60
780;DHT22;373;49.342;8.146;2022-07-12T08:44:28;27.10;75.80
780;DHT22;373;49.342;8.146;2022-07-12T08:46:55;27.50;75.70
780;DHT22;373;49.342;8.146;2022-07-12T08:49:23;27.80;72.60
780;DHT22;373;49.342;8.146;2022-07-12T08:51:50;27.90;72.10
780;DHT22;373;49.342;8.146;2022-07-12T08:54:17;27.70;74.10
780;DHT22;373;49.342;8.146;2022-07-12T08:56:44;27.30;76.30
780;DHT22;373;49.342;8.146;2022-07-12T08:59:13;27.30;75.20
780;DHT22;373;49.342;8.146;2022-07-12T09:01:45;27.30;75.50
780;DHT22;373;49.342;8.146;2022-07-12T09:04:14;27.00;77.00
780;DHT22;373;49.342;8.146;2022-07-12T09:06:41;27.30;77.80
780;DHT22;373;49.342;8.146;2022-07-12T09:09:09;27.50;76.00
780;DHT22;373;49.342;8.146;2022-07-12T09:11:37;27.50;75.20
780;DHT22;373;49.342;8.146;2022-07-12T09:14:05;26.50;76.90
780;DHT22;373;49.342;8.146;2022-07-12T09:16:32;26.60;79.80
780;DHT22;373;49.342;8.146;2022-07-12T09:19:13;26.20;77.10
780;DHT22;373;49.342;8.146;2022-07-12T09:21:52;26.30;78.40
780;DHT22;373;49.342;8.146;2022-07-12T09:24:23;26.50;76.90
780;DHT22;373;49.342;8.146;2022-07-12T09:26:53;26.60;75.30
780;DHT22;373;49.342;8.146;2022-07-12T09:29:21;26.60;76.30
780;DHT22;373;49.342;8.146;2022-07-12T09:31:49;26.80;75.20
780;DHT22;373;49.342;8.146;2022-07-12T09:34:36;27.10;76.50
780;DHT22;373;49.342;8.146;2022-07-12T09:37:21;27.50;75.70
780;DHT22;373;49.342;8.146;2022-07-12T09:39:49;27.70;74.20
780;DHT22;373;49.342;8.146;2022-07-12T09:42:18;27.50;72.70
780;DHT22;373;49.342;8.146;2022-07-12T09:44:46;26.90;74.20
780;DHT22;373;49.342;8.146;2022-07-12T09:47:14;26.30;74.40
780;DHT22;373;49.342;8.146;2022-07-12T09:49:43;27.00;74.60
780;DHT22;373;49.342;8.146;2022-07-12T09:52:12;27.30;74.20
780;DHT22;373;49.342;8.146;2022-07-12T09:54:41;27.30;73.00
780;DHT22;373;49.342;8.146;2022-07-12T09:57:21;27.40;72.20
780;DHT22;373;49.342;8.146;2022-07-12T09:59:50;27.70;70.00
780;DHT22;373;49.342;8.146;2022-07-12T10:02:18;27.50;70.00
780;DHT22;373;49.342;8.146;2022-07-12T10:04:48;27.40;70.80
780;DHT22;373;49.342;8.146;2022-07-12T10:07:15;27.20;72.80
780;DHT22;373;49.342;8.146;2022-07-12T10:09:44;27.90;71.60
780;DHT22;373;49.342;8.146;2022-07-12T10:12:14;28.30;70.00
780;DHT22;373;49.342;8.146;2022-07-12T10:14:42;28.10;69.40
780;DHT22;373;49.342;8.146;2022-07-12T10:17:11;27.70;69.00
780;DHT22;373;49.342;8.146;2022-07-12T10:19:39;27.40;70.00
780;DHT22;373;49.342;8.146;2022-07-12T10:22:19;27.40;70.60
780;DHT22;373;49.342;8.146;2022-07-12T10:24:49;27.50;70.50
780;DHT22;373;49.342;8.146;2022-07-12T10:27:31;27.80;71.10
780;DHT22;373;49.342;8.146;2022-07-12T10:30:19;28.40;68.40
780;DHT22;373;49.342;8.146;2022-07-12T10:32:48;28.50;68.10
780;DHT22;373;49.342;8.146;2022-07-12T10:35:17;28.60;68.60
780;DHT22;373;49.342;8.146;2022-07-12T10:40:56;28.10;66.40
780;DHT22;373;49.342;8.146;2022-07-12T10:43:25;27.50;68.30
780;DHT22;373;49.342;8.146;2022-07-12T10:46:21;27.60;68.00
780;DHT22;373;49.342;8.146;2022-07-12T10:48:50;28.20;67.60
780;DHT22;373;49.342;8.146;2022-07-12T10:51:18;28.50;65.60
780;DHT22;373;49.342;8.146;2022-07-12T10:53:47;28.70;65.60
780;DHT22;373;49.342;8.146;2022-07-12T10:56:19;29.10;65.30
780;DHT22;373;49.342;8.146;2022-07-12T10:58:48;28.90;65.30
780;DHT22;373;49.342;8.146;2022-07-12T11:01:17;28.80;64.80
780;DHT22;373;49.342;8.146;2022-07-12T11:03:46;29.00;66.50
780;DHT22;373;49.342;8.146;2022-07-12T11:06:15;28.80;66.00
780;DHT22;373;49.342;8.146;2022-07-12T11:08:54;28.50;65.90
780;DHT22;373;49.342;8.146;2022-07-12T11:11:25;29.20;65.10
780;DHT22;373;49.342;8.146;2022-07-12T11:13:55;29.80;66.40
780;DHT22;373;49.342;8.146;2022-07-12T11:16:23;30.10;63.70
780;DHT22;373;49.342;8.146;2022-07-12T11:18:51;30.20;61.10
780;DHT22;373;49.342;8.146;2022-07-12T11:21:19;29.90;62.10
780;DHT22;373;49.342;8.146;2022-07-12T11:23:48;29.10;62.20
780;DHT22;373;49.342;8.146;2022-07-12T11:26:16;29.00;62.70
780;DHT22;373;49.342;8.146;2022-07-12T11:28:45;29.10;61.50
780;DHT22;373;49.342;8.146;2022-07-12T11:31:14;29.20;61.10
780;DHT22;373;49.342;8.146;2022-07-12T11:33:43;28.70;62.60
780;DHT22;373;49.342;8.146;2022-07-12T11:36:12;28.50;63.80
780;DHT22;373;49.342;8.146;2022-07-12T11:38:42;28.50;64.30
780;DHT22;373;49.342;8.146;2022-07-12T11:41:10;28.80;63.40
780;DHT22;373;49.342;8.146;2022-07-12T11:43:38;29.50;63.90
780;DHT22;373;49.342;8.146;2022-07-12T11:46:08;30.00;60.90
780;DHT22;373;49.342;8.146;2022-07-12T11:48:37;29.70;61.00
780;DHT22;373;49.342;8.146;2022-07-12T11:51:05;29.10;62.30
780;DHT22;373;49.342;8.146;2022-07-12T11:53:34;29.00;63.70
780;DHT22;373;49.342;8.146;2022-07-12T11:56:04;29.30;62.50
780;DHT22;373;49.342;8.146;2022-07-12T11:58:31;28.90;61.70
780;DHT22;373;49.342;8.146;2022-07-12T12:00:59;28.30;62.40
780;DHT22;373;49.342;8.146;2022-07-12T12:03:28;28.20;62.60
780;DHT22;373;49.342;8.146;2022-07-12T12:05:57;28.10;63.60
780;DHT22;373;49.342;8.146;2022-07-12T12:08:24;27.90;63.50
780;DHT22;373;49.342;8.146;2022-07-12T12:10:56;27.50;63.80
780;DHT22;373;49.342;8.146;2022-07-12T12:13:24;27.90;64.70
780;DHT22;373;49.342;8.146;2022-07-12T12:15:53;27.70;64.50
780;DHT22;373;49.342;8.146;2022-07-12T12:18:33;27.60;64.50
780;DHT22;373;49.342;8.146;2022-07-12T12:21:02;28.00;64.70
780;DHT22;373;49.342;8.146;2022-07-12T12:23:30;28.50;65.20
780;DHT22;373;49.342;8.146;2022-07-12T12:26:12;29.00;63.50
780;DHT22;373;49.342;8.146;2022-07-12T12:28:47;28.80;61.50
780;DHT22;373;49.342;8.146;2022-07-12T12:31:16;28.10;62.80
780;DHT22;373;49.342;8.146;2022-07-12T12:33:47;28.20;60.50
780;DHT22;373;49.342;8.146;2022-07-12T12:36:20;28.10;60.90
780;DHT22;373;49.342;8.146;2022-07-12T12:38:49;28.20;60.90
780;DHT22;373;49.342;8.146;2022-07-12T12:41:16;28.60;60.50
780;DHT22;373;49.342;8.146;2022-07-12T12:43:52;28.70;61.10
780;DHT22;373;49.342;8.146;2022-07-12T12:46:22;28.40;60.90
780;DHT22;373;49.342;8.146;2022-07-12T12:48:51;28.50;61.30
780;DHT22;373;49.342;8.146;2022-07-12T12:51:19;29.00;60.70
780;DHT22;373;49.342;8.146;2022-07-12T12:53:55;29.20;60.20
780;DHT22;373;49.342;8.146;2022-07-12T12:56:23;29.60;60.40
780;DHT22;373;49.342;8.146;2022-07-12T12:58:50;29.70;59.60
780;DHT22;373;49.342;8.146;2022-07-12T13:01:19;29.70;61.00
780;DHT22;373;49.342;8.146;2022-07-12T13:03:46;29.90;59.50
780;DHT22;373;49.342;8.146;2022-07-12T13:06:15;30.10;59.20
780;DHT22;373;49.342;8.146;2022-07-12T13:08:42;30.00;57.60
780;DHT22;373;49.342;8.146;2022-07-12T13:11:10;30.00;57.70
780;DHT22;373;49.342;8.146;2022-07-12T13:13:49;30.00;58.40
780;DHT22;373;49.342;8.146;2022-07-12T13:16:16;30.20;58.00
780;DHT22;373;49.342;8.146;2022-07-12T13:18:43;29.80;58.70
780;DHT22;373;49.342;8.146;2022-07-12T13:21:10;29.30;57.90
780;DHT22;373;49.342;8.146;2022-07-12T13:23:39;29.00;57.40
780;DHT22;373;49.342;8.146;2022-07-12T13:26:06;28.60;58.00
780;DHT22;373;49.342;8.146;2022-07-12T13:28:33;28.70;58.40
780;DHT22;373;49.342;8.146;2022-07-12T13:31:00;28.70;58.10
780;DHT22;373;49.342;8.146;2022-07-12T13:33:27;29.00;58.20
780;DHT22;373;49.342;8.146;2022-07-12T13:35:55;29.10;57.70
780;DHT22;373;49.342;8.146;2022-07-12T13:38:22;29.10;57.40
780;DHT22;373;49.342;8.146;2022-07-12T13:40:50;29.00;57.90
780;DHT22;373;49.342;8.146;2022-07-12T13:43:18;29.10;57.90
780;DHT22;373;49.342;8.146;2022-07-12T13:45:45;29.40;58.80
780;DHT22;373;49.342;8.146;2022-07-12T13:48:12;29.70;57.80
780;DHT22;373;49.342;8.146;2022-07-12T13:50:39;29.60;58.20
780;DHT22;373;49.342;8.146;2022-07-12T13:53:06;29.50;57.50
780;DHT22;373;49.342;8.146;2022-07-12T13:55:34;29.40;57.90
780;DHT22;373;49.342;8.146;2022-07-12T13:58:06;29.10;57.20
780;DHT22;373;49.342;8.146;2022-07-12T14:00:33;29.60;56.80
780;DHT22;373;49.342;8.146;2022-07-12T14:03:01;29.20;56.00
780;DHT22;373;49.342;8.146;2022-07-12T14:05:28;28.70;56.30
780;DHT22;373;49.342;8.146;2022-07-12T14:07:56;28.80;56.60
780;DHT22;373;49.342;8.146;2022-07-12T14:10:23;28.70;56.60
780;DHT22;373;49.342;8.146;2022-07-12T14:12:51;28.70;57.20
780;DHT22;373;49.342;8.146;2022-07-12T14:15:19;29.00;57.90
780;DHT22;373;49.342;8.146;2022-07-12T14:18:03;29.10;56.10
780;DHT22;373;49.342;8.146;2022-07-12T14:20:32;29.50;55.90
780;DHT22;373;49.342;8.146;2022-07-12T14:22:59;29.40;56.30
780;DHT22;373;49.342;8.146;2022-07-12T14:25:26;29.30;55.30
780;DHT22;373;49.342;8.146;2022-07-12T14:27:54;29.00;56.40
780;DHT22;373;49.342;8.146;2022-07-12T14:30:22;28.80;56.80
780;DHT22;373;49.342;8.146;2022-07-12T14:32:49;28.80;55.90
780;DHT22;373;49.342;8.146;2022-07-12T14:35:17;29.10;56.20
780;DHT22;373;49.342;8.146;2022-07-12T14:37:44;29.30;54.80
780;DHT22;373;49.342;8.146;2022-07-12T14:40:11;29.10;54.70
780;DHT22;373;49.342;8.146;2022-07-12T14:42:38;28.80;56.20
780;DHT22;373;49.342;8.146;2022-07-12T14:45:07;28.80;56.30
780;DHT22;373;49.342;8.146;2022-07-12T14:47:36;29.40;55.80
780;DHT22;373;49.342;8.146;2022-07-12T14:50:04;29.50;54.90
780;DHT22;373;49.342;8.146;2022-07-12T14:52:33;29.70;54.10
780;DHT22;373;49.342;8.146;2022-07-12T14:55:00;29.70;53.50
780;DHT22;373;49.342;8.146;2022-07-12T14:57:28;29.80;53.90
780;DHT22;373;49.342;8.146;2022-07-12T14:59:55;30.00;54.00
780;DHT22;373;49.342;8.146;2022-07-12T15:02:22;30.00;53.50
780;DHT22;373;49.342;8.146;2022-07-12T15:04:52;29.80;53.80
780;DHT22;373;49.342;8.146;2022-07-12T15:07:19;29.80;54.40
780;DHT22;373;49.342;8.146;2022-07-12T15:09:46;29.70;53.10
780;DHT22;373;49.342;8.146;2022-07-12T15:12:14;29.50;54.00
780;DHT22;373;49.342;8.146;2022-07-12T15:14:44;29.40;53.10
780;DHT22;373;49.342;8.146;2022-07-12T15:17:11;29.20;52.90
780;DHT22;373;49.342;8.146;2022-07-12T15:19:41;29.30;53.70
780;DHT22;373;49.342;8.146;2022-07-12T15:22:10;29.50;51.20
780;DHT22;373;49.342;8.146;2022-07-12T15:24:38;29.40;53.00
780;DHT22;373;49.342;8.146;2022-07-12T15:27:05;29.40;52.10
780;DHT22;373;49.342;8.146;2022-07-12T15:29:34;29.40;51.50
780;DHT22;373;49.342;8.146;2022-07-12T15:32:01;29.70;50.80
780;DHT22;373;49.342;8.146;2022-07-12T15:34:28;29.70;50.50
780;DHT22;373;49.342;8.146;2022-07-12T15:36:56;29.80;51.50
780;DHT22;373;49.342;8.146;2022-07-12T15:39:24;29.00;51.70
780;DHT22;373;49.342;8.146;2022-07-12T15:41:51;29.00;53.10
780;DHT22;373;49.342;8.146;2022-07-12T15:44:18;29.10;52.60
780;DHT22;373;49.342;8.146;2022-07-12T15:46:46;29.00;52.70
780;DHT22;373;49.342;8.146;2022-07-12T15:49:13;29.30;53.20
780;DHT22;373;49.342;8.146;2022-07-12T15:51:40;29.30;53.10
780;DHT22;373;49.342;8.146;2022-07-12T15:54:26;29.50;53.80
780;DHT22;373;49.342;8.146;2022-07-12T15:56:53;29.70;53.90
780;DHT22;373;49.342;8.146;2022-07-12T15:59:21;29.80;53.70
780;DHT22;373;49.342;8.146;2022-07-12T16:01:48;30.20;53.20
780;DHT22;373;49.342;8.146;2022-07-12T16:04:15;30.20;52.20
780;DHT22;373;49.342;8.146;2022-07-12T16:06:42;30.10;52.70
780;DHT22;373;49.342;8.146;2022-07-12T16:09:10;29.90;51.70
780;DHT22;373;49.342;8.146;2022-07-12T16:11:38;29.80;52.70
780;DHT22;373;49.342;8.146;2022-07-12T16:14:05;29.70;52.00
780;DHT22;373;49.342;8.146;2022-07-12T16:16:33;29.60;52.20
780;DHT22;373;49.342;8.146;2022-07-12T16:19:00;29.70;52.20
780;DHT22;373;49.342;8.146;2022-07-12T16:21:28;29.70;51.60
780;DHT22;373;49.342;8.146;2022-07-12T16:23:55;29.90;51.20
780;DHT22;373;49.342;8.146;2022-07-12T16:26:23;29.90;51.90
780;DHT22;373;49.342;8.146;2022-07-12T16:28:51;30.00;51.30
780;DHT22;373;49.342;8.146;2022-07-12T16:31:19;29.70;52.30
780;DHT22;373;49.342;8.146;2022-07-12T16:33:46;29.50;52.40
780;DHT22;373;49.342;8.146;2022-07-12T16:36:13;29.40;52.40
780;DHT22;373;49.342;8.146;2022-07-12T16:38:41;29.20;51.70
780;DHT22;373;49.342;8.146;2022-07-12T16:41:08;29.30;51.40
780;DHT22;373;49.342;8.146;2022-07-12T16:43:36;29.50;52.70
780;DHT22;373;49.342;8.146;2022-07-12T16:46:04;29.60;51.90
780;DHT22;373;49.342;8.146;2022-07-12T16:48:31;29.80;51.80
780;DHT22;373;49.342;8.146;2022-07-12T16:50:58;29.60;52.80
780;DHT22;373;49.342;8.146;2022-07-12T16:53:43;29.50;52.30
780;DHT22;373;49.342;8.146;2022-07-12T16:56:12;29.80;51.80
780;DHT22;373;49.342;8.146;2022-07-12T16:58:40;29.70;51.90
780;DHT22;373;49.342;8.146;2022-07-12T17:01:09;29.80;51.70
780;DHT22;373;49.342;8.146;2022-07-12T17:03:36;29.90;51.00
780;DHT22;373;49.342;8.146;2022-07-12T17:06:03;30.00;51.50
780;DHT22;373;49.342;8.146;2022-07-12T17:08:32;29.90;51.00
780;DHT22;373;49.342;8.146;2022-07-12T17:10:59;30.10;50.90
780;DHT22;373;49.342;8.146;2022-07-12T17:13:26;30.30;51.00
780;DHT22;373;49.342;8.146;2022-07-12T17:15:53;30.20;50.60
780;DHT22;373;49.342;8.146;2022-07-12T17:18:22;29.80;51.00